Time;durP1;ratioP1;P1;durP2;ratioP2;P2;SDS_P1;SDS_P2;PMS_P1;PMS_P2;Temp;Humidity;BMP_temperature;BMP_pressure;BME280_temperature;BME280_humidity;BME280_pressure;Samples;Min_cycle;Max_cycle;Signal;HPM_P1;HPM_P2
2024/03/07 00:02:17;;;;;;;;;;;9.30;85.20;;;;;;5012628;28;87040;-43
2024/03/07 00:04:43;;;;;;;;;;;9.40;85.30;;;;;;5013171;28;88170;-42
2024/03/07 00:07:09;;;;;;;;;;;9.30;85.30;;;;;;5017304;28;87833;-42
2024/03/07 00:09:34;;;;;;;;;;;9.30;85.30;;;;;;5007464;28;87161;-42
2024/03/07 00:12:00;;;;;;;;;;;9.30;85.30;;;;;;4999785;28;86978;-42
2024/03/07 00:14:26;;;;;;;;;;;9.30;85.30;;;;;;5006929;28;88649;-42
2024/03/07 00:16:53;;;;;;;;;;;9.30;85.30;;;;;;5014949;28;86890;-42
2024/03/07 00:19:18;;;;;;;;;;;9.30;85.30;;;;;;5019152;28;87393;-43
2024/03/07 00:21:44;;;;;;;;;;;9.30;85.30;;;;;;4997259;28;88443;-42
2024/03/07 00:24:10;;;;;;;;;;;9.30;85.40;;;;;;5008274;28;86774;-43
2024/03/07 00:26:36;;;;;;;;;;;9.30;85.30;;;;;;5014291;28;88771;-42
2024/03/07 00:29:02;;;;;;;;;;;9.30;85.30;;;;;;5020562;28;87001;-43
2024/03/07 00:31:29;;;;;;;;;;;9.30;85.30;;;;;;4996555;28;88149;-43
2024/03/07 00:33:56;;;;;;;;;;;9.30;85.30;;;;;;5001069;28;87446;-44
2024/03/07 00:36:22;;;;;;;;;;;9.30;85.30;;;;;;5008306;28;86951;-44
2024/03/07 00:38:47;;;;;;;;;;;9.30;86.00;;;;;;5012240;28;87029;-43
2024/03/07 00:41:14;;;;;;;;;;;9.30;85.40;;;;;;5011358;28;87694;-43
2024/03/07 00:43:40;;;;;;;;;;;9.30;85.40;;;;;;4997983;28;87881;-42
2024/03/07 00:46:06;;;;;;;;;;;9.30;85.40;;;;;;5003738;28;88500;-43
2024/03/07 00:48:32;;;;;;;;;;;9.30;85.40;;;;;;5016222;28;86295;-43
2024/03/07 00:50:57;;;;;;;;;;;9.30;85.40;;;;;;5014361;28;87228;-43
2024/03/07 00:53:23;;;;;;;;;;;9.30;85.40;;;;;;4998842;28;87755;-43
2024/03/07 00:55:48;;;;;;;;;;;9.30;85.40;;;;;;5004077;28;88023;-43
2024/03/07 00:58:14;;;;;;;;;;;9.30;85.40;;;;;;5007006;28;88279;-42
2024/03/07 01:00:42;;;;;;;;;;;9.30;85.40;;;;;;5015480;28;87668;-42
2024/03/07 01:03:11;;;;;;;;;;;9.30;85.40;;;;;;5004348;28;87832;-43
2024/03/07 01:05:37;;;;;;;;;;;9.30;85.50;;;;;;4998752;28;87325;-42
2024/03/07 01:08:02;;;;;;;;;;;9.30;85.40;;;;;;5002301;28;87993;-43
2024/03/07 01:10:28;;;;;;;;;;;9.30;85.50;;;;;;5010843;28;86817;-42
2024/03/07 01:12:57;;;;;;;;;;;9.30;85.40;;;;;;5010792;28;88160;-44
2024/03/07 01:15:23;;;;;;;;;;;9.20;85.40;;;;;;4993843;28;86990;-42
2024/03/07 01:17:48;;;;;;;;;;;9.30;85.50;;;;;;5005788;28;87889;-43
2024/03/07 01:20:14;;;;;;;;;;;9.20;85.50;;;;;;5012034;28;88216;-44
2024/03/07 01:22:40;;;;;;;;;;;9.20;85.40;;;;;;5013387;28;87798;-43
2024/03/07 01:25:06;;;;;;;;;;;9.30;85.50;;;;;;5010740;28;87020;-42
2024/03/07 01:27:32;;;;;;;;;;;9.20;85.50;;;;;;5002631;28;86971;-43
2024/03/07 01:29:57;;;;;;;;;;;9.20;85.50;;;;;;5006913;28;86852;-43
2024/03/07 01:32:23;;;;;;;;;;;9.20;85.40;;;;;;5006952;28;87582;-43
2024/03/07 01:34:48;;;;;;;;;;;9.20;85.50;;;;;;5004608;28;86999;-43
2024/03/07 01:37:14;;;;;;;;;;;9.20;85.40;;;;;;4999777;28;87110;-43
2024/03/07 01:39:40;;;;;;;;;;;9.20;85.50;;;;;;5003421;28;87464;-43
2024/03/07 01:42:05;;;;;;;;;;;9.20;85.50;;;;;;5013422;28;86827;-42
2024/03/07 01:44:32;;;;;;;;;;;9.20;85.50;;;;;;5015743;28;87881;-44
2024/03/07 01:46:59;;;;;;;;;;;9.20;85.50;;;;;;5000408;28;89025;-43
2024/03/07 01:49:24;;;;;;;;;;;9.20;85.50;;;;;;5005720;28;87941;-42
2024/03/07 01:51:50;;;;;;;;;;;9.20;85.50;;;;;;5008866;28;87388;-43
2024/03/07 01:54:16;;;;;;;;;;;9.20;85.60;;;;;;5009731;28;86951;-43
2024/03/07 01:56:41;;;;;;;;;;;9.20;85.60;;;;;;5010392;28;87858;-43
2024/03/07 01:59:07;;;;;;;;;;;9.20;85.60;;;;;;5005646;28;87966;-43
2024/03/07 02:01:34;;;;;;;;;;;9.20;86.20;;;;;;5008638;28;86299;-42
2024/03/07 02:03:59;;;;;;;;;;;9.10;85.60;;;;;;5015776;28;87347;-43
2024/03/07 02:06:25;;;;;;;;;;;9.10;85.60;;;;;;5018492;28;87608;-42
2024/03/07 02:08:51;;;;;;;;;;;9.10;85.60;;;;;;5000520;28;87834;-43
2024/03/07 02:11:17;;;;;;;;;;;9.10;85.60;;;;;;5004596;28;87795;-42
2024/03/07 02:13:42;;;;;;;;;;;9.10;85.60;;;;;;5012064;28;87023;-43
2024/03/07 02:16:08;;;;;;;;;;;9.10;85.60;;;;;;5019651;28;87296;-43
2024/03/07 02:18:34;;;;;;;;;;;9.10;85.70;;;;;;5009246;28;87668;-43
2024/03/07 02:21:00;;;;;;;;;;;9.10;85.70;;;;;;5003153;28;87513;-42
2024/03/07 02:23:27;;;;;;;;;;;9.10;85.70;;;;;;5009296;28;86981;-43
2024/03/07 02:25:53;;;;;;;;;;;9.10;85.70;;;;;;5013491;28;87658;-43
2024/03/07 02:28:19;;;;;;;;;;;9.10;85.70;;;;;;5019950;28;87067;-43
2024/03/07 02:30:45;;;;;;;;;;;9.00;85.60;;;;;;5003973;28;89059;-43
2024/03/07 02:33:11;;;;;;;;;;;9.00;85.60;;;;;;5005833;28;89094;-43
2024/03/07 02:35:38;;;;;;;;;;;9.00;85.60;;;;;;5015769;28;88899;-44
2024/03/07 02:38:04;;;;;;;;;;;9.00;85.60;;;;;;5017462;28;88294;-43
2024/03/07 02:40:30;;;;;;;;;;;9.00;85.60;;;;;;5005589;28;87022;-44
2024/03/07 02:42:56;;;;;;;;;;;9.00;85.50;;;;;;5007193;28;87002;-43
2024/03/07 02:45:21;;;;;;;;;;;9.00;85.60;;;;;;5010028;28;88523;-43
2024/03/07 02:47:47;;;;;;;;;;;9.00;85.60;;;;;;5012953;28;86988;-45
2024/03/07 02:50:13;;;;;;;;;;;9.00;85.70;;;;;;5014202;28;87186;-43
2024/03/07 02:52:39;;;;;;;;;;;9.00;85.60;;;;;;4998642;28;87660;-42
2024/03/07 02:55:05;;;;;;;;;;;9.00;85.70;;;;;;5004709;28;88067;-43
2024/03/07 02:57:31;;;;;;;;;;;9.00;85.60;;;;;;5010301;28;87932;-43
2024/03/07 02:59:56;;;;;;;;;;;9.00;85.60;;;;;;5017822;28;87021;-43
2024/03/07 03:02:22;;;;;;;;;;;9.00;85.70;;;;;;5004853;28;86967;-43
2024/03/07 03:04:47;;;;;;;;;;;9.00;85.60;;;;;;5006060;28;87552;-44
2024/03/07 03:07:13;;;;;;;;;;;8.90;85.60;;;;;;5011238;28;87054;-43
2024/03/07 03:09:43;;;;;;;;;;;8.90;85.50;;;;;;5010569;28;88142;-42
2024/03/07 03:12:11;;;;;;;;;;;8.90;85.60;;;;;;5009531;28;88664;-44
2024/03/07 03:14:37;;;;;;;;;;;8.90;85.70;;;;;;5002440;28;86880;-44
2024/03/07 03:17:03;;;;;;;;;;;8.90;85.70;;;;;;5006808;28;88556;-43
2024/03/07 03:19:28;;;;;;;;;;;8.90;85.70;;;;;;5010170;28;87481;-44
2024/03/07 03:21:55;;;;;;;;;;;8.90;85.70;;;;;;5012526;28;88121;-43
2024/03/07 03:24:21;;;;;;;;;;;8.90;85.60;;;;;;5003663;28;88542;-43
2024/03/07 03:26:47;;;;;;;;;;;8.90;85.70;;;;;;5006050;28;87029;-42
2024/03/07 03:29:13;;;;;;;;;;;8.90;85.70;;;;;;5008802;28;87043;-43
2024/03/07 03:31:39;;;;;;;;;;;8.90;85.60;;;;;;5006830;28;88450;-43
2024/03/07 03:34:05;;;;;;;;;;;8.80;85.60;;;;;;5008565;28;87709;-43
2024/03/07 03:36:30;;;;;;;;;;;8.80;85.60;;;;;;4998307;28;87505;-43
2024/03/07 03:38:56;;;;;;;;;;;8.80;85.70;;;;;;5010420;28;86594;-43
2024/03/07 03:41:22;;;;;;;;;;;8.80;85.60;;;;;;5015013;28;87025;-43
2024/03/07 03:43:48;;;;;;;;;;;8.80;85.60;;;;;;5012522;28;87580;-43
2024/03/07 03:46:14;;;;;;;;;;;8.90;85.60;;;;;;5000332;28;88025;-43
2024/03/07 03:48:42;;;;;;;;;;;8.80;85.70;;;;;;5005821;28;88647;-42
2024/03/07 03:51:09;;;;;;;;;;;8.80;85.70;;;;;;5013556;28;87576;-42
2024/03/07 03:53:35;;;;;;;;;;;8.80;85.60;;;;;;5020600;28;87000;-43
2024/03/07 03:56:00;;;;;;;;;;;8.80;85.60;;;;;;5003688;28;87444;-42
2024/03/07 03:58:26;;;;;;;;;;;8.80;85.70;;;;;;5006406;28;87087;-42
2024/03/07 04:00:51;;;;;;;;;;;8.80;85.70;;;;;;5006132;28;87117;-42
2024/03/07 04:03:17;;;;;;;;;;;8.80;85.60;;;;;;5019312;28;86814;-43
2024/03/07 04:05:43;;;;;;;;;;;8.70;85.60;;;;;;5012842;28;87107;-43
2024/03/07 04:08:09;;;;;;;;;;;8.70;85.70;;;;;;5003402;28;87028;-43
2024/03/07 04:10:35;;;;;;;;;;;8.80;85.70;;;;;;5001106;28;89265;-43
2024/03/07 04:13:00;;;;;;;;;;;8.70;85.70;;;;;;5015240;28;86963;-43
2024/03/07 04:15:26;;;;;;;;;;;8.70;85.70;;;;;;5019297;28;86984;-42
2024/03/07 04:17:52;;;;;;;;;;;8.70;85.70;;;;;;5000594;28;86993;-42
2024/03/07 04:20:18;;;;;;;;;;;8.70;85.70;;;;;;5007095;28;87075;-43
2024/03/07 04:22:44;;;;;;;;;;;8.70;85.70;;;;;;5008836;28;88378;-42
2024/03/07 04:25:12;;;;;;;;;;;8.70;85.80;;;;;;5010145;28;87533;-43
2024/03/07 04:27:39;;;;;;;;;;;8.70;85.70;;;;;;4998116;28;87319;-42
2024/03/07 04:30:09;;;;;;;;;;;8.70;85.80;;;;;;5005533;28;86924;-42
2024/03/07 04:32:36;;;;;;;;;;;8.70;85.90;;;;;;5009048;28;87062;-42
2024/03/07 04:35:03;;;;;;;;;;;8.70;85.90;;;;;;5015382;28;87838;-43
2024/03/07 04:37:29;;;;;;;;;;;8.70;85.90;;;;;;5016154;28;88440;-43
2024/03/07 04:39:55;;;;;;;;;;;8.70;85.90;;;;;;5006416;28;87117;-42
2024/03/07 04:42:21;;;;;;;;;;;8.70;85.90;;;;;;5002983;28;87842;-42
2024/03/07 04:44:46;;;;;;;;;;;8.70;85.80;;;;;;5013164;28;86912;-42
2024/03/07 04:47:12;;;;;;;;;;;8.60;85.80;;;;;;5020319;28;87019;-43
2024/03/07 04:49:37;;;;;;;;;;;8.60;85.80;;;;;;5003614;28;87987;-43
2024/03/07 04:52:04;;;;;;;;;;;8.60;85.80;;;;;;5005342;28;86228;-43
2024/03/07 04:54:31;;;;;;;;;;;8.60;85.80;;;;;;4998832;28;87621;-42
2024/03/07 04:56:57;;;;;;;;;;;8.60;85.80;;;;;;4998054;28;89038;-43
2024/03/07 04:59:23;;;;;;;;;;;8.60;85.90;;;;;;5009381;28;87923;-43
2024/03/07 05:01:49;;;;;;;;;;;8.60;85.90;;;;;;5001801;28;87450;-43
2024/03/07 05:04:15;;;;;;;;;;;8.50;86.00;;;;;;5000716;28;87981;-43
2024/03/07 05:06:41;;;;;;;;;;;8.60;85.90;;;;;;5002772;28;86990;-43
2024/03/07 05:09:08;;;;;;;;;;;8.60;86.00;;;;;;5011681;28;90266;-42
2024/03/07 05:11:34;;;;;;;;;;;8.60;86.00;;;;;;4995739;28;87416;-43
2024/03/07 05:14:00;;;;;;;;;;;8.50;86.00;;;;;;4998951;28;88883;-42
2024/03/07 05:16:29;;;;;;;;;;;8.50;85.90;;;;;;4998358;28;86172;-43
2024/03/07 05:18:59;;;;;;;;;;;8.50;85.90;;;;;;5016256;28;87787;-42
2024/03/07 05:21:38;;;;;;;;;;;8.50;85.90;;;;;;5014390;28;87851;-42
2024/03/07 05:24:05;;;;;;;;;;;8.50;86.10;;;;;;5001954;28;87933;-42
2024/03/07 05:26:33;;;;;;;;;;;8.50;86.10;;;;;;5004167;28;89622;-42
2024/03/07 05:29:07;;;;;;;;;;;8.50;86.00;;;;;;5017381;28;88057;-42
2024/03/07 05:31:36;;;;;;;;;;;8.50;86.00;;;;;;5007361;28;87147;-44
2024/03/07 05:34:08;;;;;;;;;;;8.50;86.00;;;;;;5002816;28;88057;-43
2024/03/07 05:36:34;;;;;;;;;;;8.50;86.00;;;;;;5006721;28;88499;-43
2024/03/07 05:39:01;;;;;;;;;;;8.50;86.10;;;;;;5011542;28;87298;-43
2024/03/07 05:41:29;;;;;;;;;;;8.50;86.10;;;;;;5007360;28;86702;-43
2024/03/07 05:43:55;;;;;;;;;;;8.40;86.00;;;;;;5003193;28;87919;-42
2024/03/07 05:46:21;;;;;;;;;;;8.40;86.00;;;;;;5007795;28;87019;-42
2024/03/07 05:48:51;;;;;;;;;;;8.40;86.00;;;;;;5011260;28;88718;-42
2024/03/07 05:51:17;;;;;;;;;;;8.50;86.10;;;;;;5005053;28;88593;-43
2024/03/07 05:53:43;;;;;;;;;;;8.40;86.10;;;;;;4998201;28;88768;-42
2024/03/07 05:56:09;;;;;;;;;;;8.40;86.00;;;;;;5003427;28;87637;-42
2024/03/07 05:58:34;;;;;;;;;;;8.40;86.10;;;;;;5008426;28;86966;-42
2024/03/07 06:01:00;;;;;;;;;;;8.40;86.10;;;;;;5004471;28;87460;-42
2024/03/07 06:03:26;;;;;;;;;;;8.40;86.00;;;;;;5003647;28;88531;-42
2024/03/07 06:05:53;;;;;;;;;;;8.40;86.10;;;;;;5008460;28;86270;-43
2024/03/07 06:08:19;;;;;;;;;;;8.40;86.10;;;;;;5010290;28;88629;-42
2024/03/07 06:10:45;;;;;;;;;;;8.40;86.10;;;;;;5000628;28;87919;-43
2024/03/07 06:13:12;;;;;;;;;;;8.40;86.10;;;;;;5009440;28;88096;-42
2024/03/07 06:15:42;;;;;;;;;;;8.40;86.10;;;;;;5001486;28;87282;-43
2024/03/07 06:18:08;;;;;;;;;;;8.40;86.00;;;;;;5007672;28;86970;-43
2024/03/07 06:20:34;;;;;;;;;;;8.40;86.00;;;;;;5002033;28;87077;-42
2024/03/07 06:23:04;;;;;;;;;;;8.40;86.00;;;;;;5009894;28;88617;-43
2024/03/07 06:25:50;;;;;;;;;;;8.40;86.00;;;;;;5008883;28;87364;-44
2024/03/07 06:28:16;;;;;;;;;;;8.40;85.90;;;;;;4997724;28;88494;-43
2024/03/07 06:30:43;;;;;;;;;;;8.40;86.10;;;;;;5003484;28;86869;-43
2024/03/07 06:33:12;;;;;;;;;;;8.40;86.10;;;;;;5009478;28;88668;-43
2024/03/07 06:35:38;;;;;;;;;;;8.40;86.10;;;;;;5010498;28;88585;-43
2024/03/07 06:38:08;;;;;;;;;;;8.40;86.10;;;;;;5002223;28;88461;-43
2024/03/07 06:40:36;;;;;;;;;;;8.40;86.10;;;;;;5001236;28;90575;-43
2024/03/07 06:43:06;;;;;;;;;;;8.40;86.10;;;;;;5011081;28;88612;-43
2024/03/07 06:45:32;;;;;;;;;;;8.40;86.10;;;;;;5018155;28;87068;-44
2024/03/07 06:47:58;;;;;;;;;;;8.40;86.10;;;;;;5001438;28;87787;-43
2024/03/07 06:50:23;;;;;;;;;;;8.40;86.10;;;;;;4999812;28;86957;-42
2024/03/07 06:52:49;;;;;;;;;;;8.40;86.00;;;;;;5009974;28;87980;-43
2024/03/07 06:55:16;;;;;;;;;;;8.40;86.10;;;;;;5012579;28;88084;-43
2024/03/07 06:57:45;;;;;;;;;;;8.40;86.10;;;;;;4998363;28;87094;-43
2024/03/07 07:00:11;;;;;;;;;;;8.40;86.10;;;;;;5001636;28;87025;-44
2024/03/07 07:02:40;;;;;;;;;;;8.30;86.20;;;;;;5006606;28;87940;-43
2024/03/07 07:05:12;;;;;;;;;;;8.30;86.10;;;;;;5011524;28;87402;-44
2024/03/07 07:07:38;;;;;;;;;;;8.30;86.10;;;;;;5004978;28;88676;-44
2024/03/07 07:10:04;;;;;;;;;;;8.30;86.10;;;;;;5001637;28;87643;-43
2024/03/07 07:12:30;;;;;;;;;;;8.30;86.20;;;;;;4999051;28;88022;-43
2024/03/07 07:14:56;;;;;;;;;;;8.30;86.20;;;;;;5004215;28;88737;-43
2024/03/07 07:17:23;;;;;;;;;;;8.30;86.10;;;;;;5006209;28;87489;-43
2024/03/07 07:19:49;;;;;;;;;;;8.40;86.20;;;;;;4993143;28;87985;-43
2024/03/07 07:22:14;;;;;;;;;;;8.30;86.10;;;;;;5002127;28;88664;-43
2024/03/07 07:24:40;;;;;;;;;;;8.30;86.20;;;;;;5005702;28;87587;-43
2024/03/07 07:27:07;;;;;;;;;;;8.30;86.20;;;;;;5006135;28;89604;-43
2024/03/07 07:29:32;;;;;;;;;;;8.30;86.20;;;;;;5005339;28;87624;-44
2024/03/07 07:31:58;;;;;;;;;;;8.30;86.10;;;;;;5003750;28;87046;-43
2024/03/07 07:34:23;;;;;;;;;;;8.30;86.20;;;;;;5004907;28;88851;-43
2024/03/07 07:36:49;;;;;;;;;;;8.30;86.20;;;;;;5002516;28;87236;-43
2024/03/07 07:39:16;;;;;;;;;;;8.30;86.10;;;;;;4998577;28;87017;-44
2024/03/07 07:41:42;;;;;;;;;;;8.30;86.20;;;;;;5003991;28;88681;-43
2024/03/07 07:44:09;;;;;;;;;;;8.30;86.10;;;;;;5022630;28;86135;-43
2024/03/07 07:46:34;;;;;;;;;;;8.30;86.10;;;;;;4999482;28;87348;-43
2024/03/07 07:49:01;;;;;;;;;;;8.30;86.00;;;;;;4999085;28;87466;-43
2024/03/07 07:51:26;;;;;;;;;;;8.30;85.90;;;;;;4999427;28;88147;-44
2024/03/07 07:53:54;;;;;;;;;;;8.30;85.90;;;;;;5009835;28;88267;-43
2024/03/07 07:56:19;;;;;;;;;;;8.40;85.90;;;;;;5010142;28;87057;-44
2024/03/07 07:58:45;;;;;;;;;;;8.40;85.90;;;;;;4994429;28;87240;-43
2024/03/07 08:01:11;;;;;;;;;;;8.40;85.80;;;;;;4999398;28;87632;-43
2024/03/07 08:03:37;;;;;;;;;;;8.40;85.60;;;;;;5019010;28;86915;-43
2024/03/07 08:06:03;;;;;;;;;;;8.40;85.40;;;;;;5010771;28;87880;-43
2024/03/07 08:08:29;;;;;;;;;;;8.40;85.40;;;;;;4999460;28;86900;-43
2024/03/07 08:10:54;;;;;;;;;;;8.50;85.50;;;;;;5004872;28;87688;-43
2024/03/07 08:13:20;;;;;;;;;;;8.50;85.30;;;;;;5004789;28;87810;-44
2024/03/07 08:15:45;;;;;;;;;;;8.40;85.30;;;;;;4997828;28;88233;-43
2024/03/07 08:18:11;;;;;;;;;;;8.50;85.40;;;;;;5009861;28;88062;-43
2024/03/07 08:20:37;;;;;;;;;;;8.40;85.50;;;;;;5006403;28;87613;-43
2024/03/07 08:23:03;;;;;;;;;;;8.40;85.60;;;;;;5019395;28;86970;-43
2024/03/07 08:25:29;;;;;;;;;;;8.40;85.60;;;;;;5007627;28;87959;-44
2024/03/07 08:27:56;;;;;;;;;;;8.40;85.60;;;;;;5000464;28;88515;-43
2024/03/07 08:30:22;;;;;;;;;;;8.40;85.90;;;;;;5004359;28;86992;-43
2024/03/07 08:32:57;;;;;;;;;;;8.40;85.80;;;;;;5004841;28;88172;-43
2024/03/07 08:35:23;;;;;;;;;;;8.40;85.90;;;;;;5006544;28;88569;-43
2024/03/07 08:37:52;;;;;;;;;;;8.30;85.80;;;;;;5004003;28;87125;-43
2024/03/07 08:40:21;;;;;;;;;;;8.30;86.00;;;;;;5010158;28;89273;-43
2024/03/07 08:42:48;;;;;;;;;;;8.30;86.00;;;;;;5014809;28;87080;-43
2024/03/07 08:45:17;;;;;;;;;;;8.30;86.10;;;;;;4994736;28;87422;-43
2024/03/07 08:47:43;;;;;;;;;;;8.30;86.20;;;;;;4988987;28;87596;-43
2024/03/07 08:50:09;;;;;;;;;;;8.30;86.10;;;;;;4997129;28;87121;-43
2024/03/07 08:52:39;;;;;;;;;;;8.30;86.20;;;;;;5003133;28;87057;-43
2024/03/07 08:55:05;;;;;;;;;;;8.30;86.20;;;;;;5001564;28;88790;-43
2024/03/07 08:57:31;;;;;;;;;;;8.30;86.20;;;;;;5001705;28;87178;-43
2024/03/07 08:59:56;;;;;;;;;;;8.30;86.20;;;;;;5011812;28;87553;-43
2024/03/07 09:02:22;;;;;;;;;;;8.30;86.20;;;;;;5011996;28;86857;-43
2024/03/07 09:04:48;;;;;;;;;;;8.30;86.40;;;;;;4999465;28;88394;-44
2024/03/07 09:07:17;;;;;;;;;;;8.30;86.40;;;;;;4992679;28;87674;-43
2024/03/07 09:09:43;;;;;;;;;;;8.30;86.40;;;;;;4995608;28;87040;-43
2024/03/07 09:12:09;;;;;;;;;;;8.30;86.50;;;;;;5000112;28;87970;-44
2024/03/07 09:14:35;;;;;;;;;;;8.30;86.40;;;;;;5002994;28;87108;-43
2024/03/07 09:17:01;;;;;;;;;;;8.30;86.50;;;;;;5002909;28;88580;-43
2024/03/07 09:19:27;;;;;;;;;;;8.30;86.50;;;;;;5012917;28;87340;-43
2024/03/07 09:21:52;;;;;;;;;;;8.30;86.50;;;;;;5013894;28;86202;-43
2024/03/07 09:24:21;;;;;;;;;;;8.30;86.60;;;;;;5004545;28;88480;-43
2024/03/07 09:26:50;;;;;;;;;;;8.30;86.50;;;;;;4995544;28;86993;-43
2024/03/07 09:29:17;;;;;;;;;;;8.30;87.20;;;;;;4993322;28;88070;-43
2024/03/07 09:31:43;;;;;;;;;;;8.30;86.60;;;;;;4999289;28;88990;-43
2024/03/07 09:34:08;;;;;;;;;;;8.30;86.60;;;;;;4998353;28;88799;-43
2024/03/07 09:36:34;;;;;;;;;;;8.30;86.60;;;;;;5000366;28;87629;-42
2024/03/07 09:39:00;;;;;;;;;;;8.30;86.50;;;;;;5010400;28;87467;-43
2024/03/07 09:41:26;;;;;;;;;;;8.30;86.60;;;;;;5010589;28;87028;-43
2024/03/07 09:43:55;;;;;;;;;;;8.30;86.70;;;;;;5000174;28;87924;-43
2024/03/07 09:46:23;;;;;;;;;;;8.30;87.20;;;;;;4996840;28;87226;-43
2024/03/07 09:48:53;;;;;;;;;;;8.30;86.60;;;;;;4997069;28;87279;-43
2024/03/07 09:51:21;;;;;;;;;;;8.30;86.70;;;;;;4994806;28;87983;-44
2024/03/07 09:53:49;;;;;;;;;;;8.30;86.70;;;;;;4993604;28;88213;-43
2024/03/07 09:56:16;;;;;;;;;;;8.30;86.70;;;;;;4999268;28;87871;-43
2024/03/07 09:58:42;;;;;;;;;;;8.30;86.50;;;;;;5007563;28;88124;-43
2024/03/07 10:01:10;;;;;;;;;;;8.30;86.70;;;;;;5002718;28;87489;-44
2024/03/07 10:03:35;;;;;;;;;;;8.30;86.70;;;;;;5009882;28;87055;-43
2024/03/07 10:06:01;;;;;;;;;;;8.30;86.60;;;;;;5007357;28;87729;-43
2024/03/07 10:08:28;;;;;;;;;;;8.30;86.70;;;;;;4997835;28;87109;-43
2024/03/07 10:10:54;;;;;;;;;;;8.30;86.80;;;;;;5005758;28;87924;-43
2024/03/07 10:13:22;;;;;;;;;;;8.30;86.80;;;;;;4993842;28;88994;-43
2024/03/07 10:15:48;;;;;;;;;;;8.30;86.80;;;;;;5002051;28;87009;-42
2024/03/07 10:18:15;;;;;;;;;;;8.30;87.10;;;;;;5008601;28;88409;-43
2024/03/07 10:20:43;;;;;;;;;;;8.30;87.00;;;;;;5007939;28;86887;-44
2024/03/07 10:23:09;;;;;;;;;;;8.30;87.00;;;;;;5012828;28;87512;-43
2024/03/07 10:25:35;;;;;;;;;;;8.30;87.10;;;;;;5004242;28;87924;-43
2024/03/07 10:28:03;;;;;;;;;;;8.30;87.20;;;;;;4996675;28;87008;-43
2024/03/07 10:30:29;;;;;;;;;;;8.30;87.30;;;;;;4999042;28;87363;-43
2024/03/07 10:32:56;;;;;;;;;;;8.30;87.20;;;;;;5005524;28;87496;-43
2024/03/07 10:35:25;;;;;;;;;;;8.30;87.20;;;;;;5008772;28;87674;-43
2024/03/07 10:37:53;;;;;;;;;;;8.30;87.30;;;;;;5015490;28;87144;-43
2024/03/07 10:40:21;;;;;;;;;;;8.30;87.40;;;;;;5007369;28;89131;-43
2024/03/07 10:42:51;;;;;;;;;;;8.30;87.20;;;;;;5000013;28;89834;-43
2024/03/07 10:45:23;;;;;;;;;;;8.30;87.20;;;;;;5001350;28;89112;-43
2024/03/07 10:48:03;;;;;;;;;;;8.30;87.20;;;;;;5005772;28;87300;-43
2024/03/07 10:50:48;;;;;;;;;;;8.30;87.30;;;;;;4998076;28;87363;-43
2024/03/07 10:53:19;;;;;;;;;;;8.30;87.20;;;;;;5006558;28;87903;-43
2024/03/07 10:56:03;;;;;;;;;;;8.30;87.30;;;;;;5004055;28;87632;-43
2024/03/07 10:58:32;;;;;;;;;;;8.30;87.40;;;;;;4994397;28;88095;-44
2024/03/07 11:01:03;;;;;;;;;;;8.30;87.20;;;;;;5001919;28;86748;-43
2024/03/07 11:03:32;;;;;;;;;;;8.30;87.50;;;;;;5005579;28;87005;-42
2024/03/07 11:05:59;;;;;;;;;;;8.30;87.40;;;;;;5013277;28;87007;-43
2024/03/07 11:08:26;;;;;;;;;;;8.40;87.50;;;;;;5004408;28;89364;-43
2024/03/07 11:10:51;;;;;;;;;;;8.40;87.40;;;;;;5009032;28;88474;-43
2024/03/07 11:13:17;;;;;;;;;;;8.40;87.90;;;;;;4993610;28;87788;-43
2024/03/07 11:15:45;;;;;;;;;;;8.40;87.40;;;;;;5001474;28;87003;-43
2024/03/07 11:18:12;;;;;;;;;;;8.40;87.30;;;;;;5005335;28;87117;-43
2024/03/07 11:20:38;;;;;;;;;;;8.40;87.30;;;;;;5005476;28;87420;-43
2024/03/07 11:23:22;;;;;;;;;;;8.40;87.40;;;;;;5009584;28;86982;-43
2024/03/07 11:25:48;;;;;;;;;;;8.40;87.50;;;;;;5007952;28;87016;-43
2024/03/07 11:28:16;;;;;;;;;;;8.40;87.50;;;;;;4999697;28;87496;-43
2024/03/07 11:30:41;;;;;;;;;;;8.40;87.40;;;;;;4999396;28;87103;-43
2024/03/07 11:33:07;;;;;;;;;;;8.40;87.40;;;;;;5000187;28;88890;-44
2024/03/07 11:35:35;;;;;;;;;;;8.40;87.40;;;;;;5005721;28;87003;-43
2024/03/07 11:38:04;;;;;;;;;;;8.40;87.40;;;;;;5001058;28;87010;-43
2024/03/07 11:40:29;;;;;;;;;;;8.40;87.50;;;;;;5000898;28;88429;-43
2024/03/07 11:42:59;;;;;;;;;;;8.40;87.50;;;;;;4999346;28;87355;-45
2024/03/07 11:45:26;;;;;;;;;;;8.40;87.50;;;;;;5000470;28;87951;-43
2024/03/07 11:47:59;;;;;;;;;;;8.40;87.70;;;;;;5000161;28;88324;-43
2024/03/07 11:50:28;;;;;;;;;;;8.40;87.60;;;;;;4999161;28;86589;-43
2024/03/07 11:52:54;;;;;;;;;;;8.40;87.50;;;;;;5018338;28;87410;-43
2024/03/07 11:55:23;;;;;;;;;;;8.40;87.60;;;;;;5014408;28;87780;-43
2024/03/07 11:57:51;;;;;;;;;;;8.40;87.70;;;;;;4997546;28;89023;-43
2024/03/07 12:00:23;;;;;;;;;;;8.50;87.70;;;;;;4999580;28;87523;-43
2024/03/07 12:02:49;;;;;;;;;;;8.50;87.70;;;;;;5007598;28;87093;-43
2024/03/07 12:05:19;;;;;;;;;;;8.50;87.70;;;;;;5007738;28;86956;-43
2024/03/07 12:07:45;;;;;;;;;;;8.50;88.40;;;;;;5001162;28;87560;-43
2024/03/07 12:10:10;;;;;;;;;;;8.50;87.70;;;;;;5006697;28;86991;-44
2024/03/07 12:12:39;;;;;;;;;;;8.50;87.70;;;;;;4996626;28;87257;-43
2024/03/07 12:15:19;;;;;;;;;;;8.40;87.80;;;;;;4998405;28;87794;-44
2024/03/07 12:17:46;;;;;;;;;;;8.50;87.90;;;;;;4998039;28;88040;-43
2024/03/07 12:23:02;;;;;;;;;;;8.50;87.90;;;;;;5016069;28;87930;-43
2024/03/07 12:25:32;;;;;;;;;;;8.50;87.90;;;;;;5001274;28;88827;-43
2024/03/07 12:28:10;;;;;;;;;;;8.50;88.00;;;;;;5000096;28;88015;-43
2024/03/07 12:30:56;;;;;;;;;;;8.50;88.00;;;;;;4998516;28;87041;-43
2024/03/07 12:33:25;;;;;;;;;;;8.40;87.90;;;;;;5000109;28;87412;-43
2024/03/07 12:35:52;;;;;;;;;;;8.50;88.10;;;;;;5008963;28;88957;-43
2024/03/07 12:38:22;;;;;;;;;;;8.50;88.00;;;;;;5011636;28;86978;-43
2024/03/07 12:41:05;;;;;;;;;;;8.50;88.00;;;;;;5006069;28;88141;-43
2024/03/07 12:43:32;;;;;;;;;;;8.50;87.90;;;;;;4996089;28;87538;-43
2024/03/07 12:45:58;;;;;;;;;;;8.50;88.00;;;;;;5001829;28;88030;-44
2024/03/07 12:48:24;;;;;;;;;;;8.50;88.00;;;;;;5003375;28;88395;-43
2024/03/07 12:50:53;;;;;;;;;;;8.50;88.00;;;;;;5011527;28;87144;-43
2024/03/07 12:53:19;;;;;;;;;;;8.50;88.10;;;;;;5001017;28;88024;-44
2024/03/07 12:55:44;;;;;;;;;;;8.50;88.10;;;;;;4999381;28;87814;-43
2024/03/07 12:58:13;;;;;;;;;;;8.50;88.10;;;;;;5004898;28;87033;-43
2024/03/07 13:00:41;;;;;;;;;;;8.50;88.00;;;;;;5000593;28;87551;-43
2024/03/07 13:03:06;;;;;;;;;;;8.50;88.10;;;;;;5005733;28;88053;-43
2024/03/07 13:05:32;;;;;;;;;;;8.50;88.10;;;;;;5007411;28;86859;-43
2024/03/07 13:07:58;;;;;;;;;;;8.50;88.10;;;;;;5015094;28;87811;-43
2024/03/07 13:10:23;;;;;;;;;;;8.50;88.30;;;;;;5010033;28;87043;-43
2024/03/07 13:12:50;;;;;;;;;;;8.50;88.20;;;;;;4997440;28;87935;-43
2024/03/07 13:15:15;;;;;;;;;;;8.50;88.00;;;;;;4997986;28;88684;-43
2024/03/07 13:17:44;;;;;;;;;;;8.50;88.10;;;;;;5001585;28;86968;-43
2024/03/07 13:20:14;;;;;;;;;;;8.50;88.10;;;;;;5013220;28;87915;-43
2024/03/07 13:22:43;;;;;;;;;;;8.50;88.10;;;;;;5003166;28;86931;-44
2024/03/07 13:25:15;;;;;;;;;;;8.50;88.20;;;;;;4996428;28;87057;-43
2024/03/07 13:27:43;;;;;;;;;;;8.50;88.30;;;;;;4990040;28;87457;-43
2024/03/07 13:30:13;;;;;;;;;;;8.50;88.40;;;;;;4997033;28;86644;-44
2024/03/07 13:32:38;;;;;;;;;;;8.50;88.50;;;;;;4998381;28;87058;-44
2024/03/07 13:35:04;;;;;;;;;;;8.50;88.10;;;;;;5003485;28;87638;-43
2024/03/07 13:37:33;;;;;;;;;;;8.50;88.50;;;;;;5012126;28;89014;-43
2024/03/07 13:39:59;;;;;;;;;;;8.50;88.50;;;;;;5010607;28;88106;-43
2024/03/07 13:42:24;;;;;;;;;;;8.50;88.50;;;;;;4999934;28;87325;-43
2024/03/07 13:44:50;;;;;;;;;;;8.50;88.50;;;;;;4998415;28;87815;-43
2024/03/07 13:47:16;;;;;;;;;;;8.50;88.50;;;;;;5001861;28;87592;-45
2024/03/07 13:49:42;;;;;;;;;;;8.50;88.60;;;;;;5010564;28;87089;-43
2024/03/07 13:52:18;;;;;;;;;;;8.50;88.60;;;;;;5005135;28;87068;-43
2024/03/07 13:54:44;;;;;;;;;;;8.50;88.60;;;;;;5005594;28;87850;-43
2024/03/07 13:57:13;;;;;;;;;;;8.50;88.40;;;;;;5006589;28;87050;-43
2024/03/07 13:59:52;;;;;;;;;;;8.50;88.40;;;;;;5007267;28;87417;-43
2024/03/07 14:02:37;;;;;;;;;;;8.50;88.20;;;;;;4999105;28;88647;-43
2024/03/07 14:05:22;;;;;;;;;;;8.50;88.20;;;;;;5009943;28;87283;-43
2024/03/07 14:08:17;;;;;;;;;;;8.50;88.10;;;;;;5015106;28;88014;-43
2024/03/07 14:10:56;;;;;;;;;;;8.50;88.20;;;;;;4975704;28;88419;-43
2024/03/07 14:13:44;;;;;;;;;;;8.50;88.10;;;;;;4996719;28;87890;-43
2024/03/07 14:16:29;;;;;;;;;;;8.50;88.10;;;;;;5007911;28;87669;-43
2024/03/07 14:18:57;;;;;;;;;;;8.50;88.00;;;;;;5007850;28;87040;-44
2024/03/07 14:21:37;;;;;;;;;;;8.50;88.00;;;;;;5004588;28;88044;-43
2024/03/07 14:24:22;;;;;;;;;;;8.50;87.90;;;;;;5014797;28;87641;-44
2024/03/07 14:26:50;;;;;;;;;;;8.50;87.90;;;;;;4996829;28;87829;-44
2024/03/07 14:29:22;;;;;;;;;;;8.50;87.70;;;;;;4998187;28;88521;-43
2024/03/07 14:31:50;;;;;;;;;;;8.50;87.70;;;;;;5002877;28;87042;-43
2024/03/07 14:34:23;;;;;;;;;;;8.50;87.50;;;;;;5006043;28;86962;-43
2024/03/07 14:36:57;;;;;;;;;;;8.50;87.50;;;;;;5008402;28;87557;-43